sensor_id;sensor_type;location;lat;lon;timestamp;P1;durP1;ratioP1;P2;durP2;ratioP2
7527;SDS011;3805;49.006;8.514;2022-11-15T00:01:37;19.83;;;16.80;;
7527;SDS011;3805;49.006;8.514;2022-11-15T00:04:29;18.83;;;16.83;;
7527;SDS011;3805;49.006;8.514;2022-11-15T00:07:17;23.20;;;19.20;;
7527;SDS011;3805;49.006;8.514;2022-11-15T00:10:25;18.03;;;16.17;;
7527;SDS011;3805;49.006;8.514;2022-11-15T00:13:14;20.50;;;17.77;;
7527;SDS011;3805;49.006;8.514;2022-11-15T00:16:02;21.67;;;17.50;;
7527;SDS011;3805;49.006;8.514;2022-11-15T00:18:51;22.50;;;18.33;;
7527;SDS011;3805;49.006;8.514;2022-11-15T00:21:43;20.73;;;18.10;;
7527;SDS011;3805;49.006;8.514;2022-11-15T00:24:31;17.27;;;15.57;;
7527;SDS011;3805;49.006;8.514;2022-11-15T00:27:20;12.33;;;11.10;;
7527;SDS011;3805;49.006;8.514;2022-11-15T00:30:09;17.70;;;15.80;;
7527;SDS011;3805;49.006;8.514;2022-11-15T00:33:01;14.03;;;12.63;;
7527;SDS011;3805;49.006;8.514;2022-11-15T00:35:50;17.77;;;14.30;;
7527;SDS011;3805;49.006;8.514;2022-11-15T00:38:39;16.13;;;14.50;;
7527;SDS011;3805;49.006;8.514;2022-11-15T00:41:29;14.97;;;13.30;;
7527;SDS011;3805;49.006;8.514;2022-11-15T00:44:17;15.57;;;12.50;;
7527;SDS011;3805;49.006;8.514;2022-11-15T00:47:06;16.57;;;12.17;;
7527;SDS011;3805;49.006;8.514;2022-11-15T00:49:54;14.00;;;11.93;;
7527;SDS011;3805;49.006;8.514;2022-11-15T00:52:43;12.50;;;11.30;;
7527;SDS011;3805;49.006;8.514;2022-11-15T00:55:33;16.40;;;11.40;;
7527;SDS011;3805;49.006;8.514;2022-11-15T00:58:21;12.03;;;10.77;;
7527;SDS011;3805;49.006;8.514;2022-11-15T01:01:10;13.70;;;12.50;;
7527;SDS011;3805;49.006;8.514;2022-11-15T01:04:00;15.57;;;13.93;;
7527;SDS011;3805;49.006;8.514;2022-11-15T01:06:48;14.10;;;12.17;;
7527;SDS011;3805;49.006;8.514;2022-11-15T01:09:37;15.03;;;11.93;;
7527;SDS011;3805;49.006;8.514;2022-11-15T01:12:26;14.13;;;12.70;;
7527;SDS011;3805;49.006;8.514;2022-11-15T01:15:15;13.07;;;11.73;;
7527;SDS011;3805;49.006;8.514;2022-11-15T01:18:04;12.53;;;10.63;;
7527;SDS011;3805;49.006;8.514;2022-11-15T01:20:54;15.50;;;12.17;;
7527;SDS011;3805;49.006;8.514;2022-11-15T01:23:42;20.37;;;14.33;;
7527;SDS011;3805;49.006;8.514;2022-11-15T01:26:31;20.47;;;16.40;;
7527;SDS011;3805;49.006;8.514;2022-11-15T01:29:21;16.77;;;14.63;;
7527;SDS011;3805;49.006;8.514;2022-11-15T01:32:10;17.63;;;15.63;;
7527;SDS011;3805;49.006;8.514;2022-11-15T01:34:58;18.20;;;14.33;;
7527;SDS011;3805;49.006;8.514;2022-11-15T01:37:47;15.93;;;14.33;;
7527;SDS011;3805;49.006;8.514;2022-11-15T01:40:35;15.83;;;13.93;;
7527;SDS011;3805;49.006;8.514;2022-11-15T01:43:24;14.83;;;13.20;;
7527;SDS011;3805;49.006;8.514;2022-11-15T01:46:21;15.57;;;12.70;;
7527;SDS011;3805;49.006;8.514;2022-11-15T01:49:12;17.50;;;14.27;;
7527;SDS011;3805;49.006;8.514;2022-11-15T01:52:03;15.40;;;13.87;;
7527;SDS011;3805;49.006;8.514;2022-11-15T01:54:54;17.73;;;15.67;;
7527;SDS011;3805;49.006;8.514;2022-11-15T01:57:45;17.83;;;15.67;;
7527;SDS011;3805;49.006;8.514;2022-11-15T02:00:35;18.43;;;15.47;;
7527;SDS011;3805;49.006;8.514;2022-11-15T02:03:26;20.17;;;16.00;;
7527;SDS011;3805;49.006;8.514;2022-11-15T02:06:19;17.50;;;15.87;;
7527;SDS011;3805;49.006;8.514;2022-11-15T02:09:08;17.97;;;14.67;;
7527;SDS011;3805;49.006;8.514;2022-11-15T02:11:57;13.37;;;11.83;;
7527;SDS011;3805;49.006;8.514;2022-11-15T02:14:46;15.80;;;12.27;;
7527;SDS011;3805;49.006;8.514;2022-11-15T02:17:41;12.50;;;11.23;;
7527;SDS011;3805;49.006;8.514;2022-11-15T02:24:04;13.33;;;11.20;;
7527;SDS011;3805;49.006;8.514;2022-11-15T02:30:45;12.07;;;10.63;;
7527;SDS011;3805;49.006;8.514;2022-11-15T02:33:38;13.73;;;11.13;;
7527;SDS011;3805;49.006;8.514;2022-11-15T02:36:33;12.50;;;10.80;;
7527;SDS011;3805;49.006;8.514;2022-11-15T02:39:28;13.93;;;8.90;;
7527;SDS011;3805;49.006;8.514;2022-11-15T02:42:20;10.07;;;9.00;;
7527;SDS011;3805;49.006;8.514;2022-11-15T02:45:30;11.33;;;9.90;;
7527;SDS011;3805;49.006;8.514;2022-11-15T02:48:22;9.97;;;8.97;;
7527;SDS011;3805;49.006;8.514;2022-11-15T02:51:11;14.50;;;10.10;;
7527;SDS011;3805;49.006;8.514;2022-11-15T02:54:01;9.93;;;9.07;;
7527;SDS011;3805;49.006;8.514;2022-11-15T02:56:49;11.50;;;10.40;;
7527;SDS011;3805;49.006;8.514;2022-11-15T03:03:00;12.13;;;10.20;;
7527;SDS011;3805;49.006;8.514;2022-11-15T03:06:03;12.93;;;10.87;;
7527;SDS011;3805;49.006;8.514;2022-11-15T03:08:59;12.70;;;11.37;;
7527;SDS011;3805;49.006;8.514;2022-11-15T03:11:55;11.23;;;9.77;;
7527;SDS011;3805;49.006;8.514;2022-11-15T03:14:46;10.63;;;9.63;;
7527;SDS011;3805;49.006;8.514;2022-11-15T03:17:41;12.53;;;10.83;;
7527;SDS011;3805;49.006;8.514;2022-11-15T03:20:32;14.10;;;11.97;;
7527;SDS011;3805;49.006;8.514;2022-11-15T03:23:24;10.70;;;9.20;;
7527;SDS011;3805;49.006;8.514;2022-11-15T03:26:14;10.93;;;9.80;;
7527;SDS011;3805;49.006;8.514;2022-11-15T03:29:05;11.40;;;9.80;;
7527;SDS011;3805;49.006;8.514;2022-11-15T03:31:56;10.47;;;8.80;;
7527;SDS011;3805;49.006;8.514;2022-11-15T03:34:47;9.87;;;8.97;;
7527;SDS011;3805;49.006;8.514;2022-11-15T03:37:43;10.63;;;9.60;;
7527;SDS011;3805;49.006;8.514;2022-11-15T03:40:37;11.83;;;9.67;;
7527;SDS011;3805;49.006;8.514;2022-11-15T03:43:29;9.30;;;8.30;;
7527;SDS011;3805;49.006;8.514;2022-11-15T03:46:19;10.60;;;9.57;;
7527;SDS011;3805;49.006;8.514;2022-11-15T03:49:12;11.50;;;10.30;;
7527;SDS011;3805;49.006;8.514;2022-11-15T03:52:03;11.43;;;10.37;;
7527;SDS011;3805;49.006;8.514;2022-11-15T03:54:53;8.93;;;8.03;;
7527;SDS011;3805;49.006;8.514;2022-11-15T03:57:44;9.70;;;8.80;;
7527;SDS011;3805;49.006;8.514;2022-11-15T04:00:32;9.10;;;7.77;;
7527;SDS011;3805;49.006;8.514;2022-11-15T04:03:21;8.63;;;7.63;;
7527;SDS011;3805;49.006;8.514;2022-11-15T04:06:09;9.87;;;8.43;;
7527;SDS011;3805;49.006;8.514;2022-11-15T04:08:58;10.23;;;9.23;;
7527;SDS011;3805;49.006;8.514;2022-11-15T04:11:46;12.60;;;10.10;;
7527;SDS011;3805;49.006;8.514;2022-11-15T04:14:36;12.00;;;10.00;;
7527;SDS011;3805;49.006;8.514;2022-11-15T04:17:45;13.00;;;10.90;;
7527;SDS011;3805;49.006;8.514;2022-11-15T04:20:34;10.90;;;9.70;;
7527;SDS011;3805;49.006;8.514;2022-11-15T04:23:40;13.20;;;9.83;;
7527;SDS011;3805;49.006;8.514;2022-11-15T04:26:47;9.13;;;8.20;;
7527;SDS011;3805;49.006;8.514;2022-11-15T04:29:36;11.17;;;9.07;;
7527;SDS011;3805;49.006;8.514;2022-11-15T04:32:25;10.90;;;8.30;;
7527;SDS011;3805;49.006;8.514;2022-11-15T04:35:13;12.77;;;10.03;;
7527;SDS011;3805;49.006;8.514;2022-11-15T04:38:02;10.60;;;9.50;;
7527;SDS011;3805;49.006;8.514;2022-11-15T04:40:52;11.60;;;10.50;;
7527;SDS011;3805;49.006;8.514;2022-11-15T04:43:40;11.10;;;10.00;;
7527;SDS011;3805;49.006;8.514;2022-11-15T04:46:30;11.13;;;10.03;;
7527;SDS011;3805;49.006;8.514;2022-11-15T04:49:18;11.10;;;10.10;;
7527;SDS011;3805;49.006;8.514;2022-11-15T04:52:07;10.57;;;9.67;;
7527;SDS011;3805;49.006;8.514;2022-11-15T04:54:55;13.37;;;9.90;;
7527;SDS011;3805;49.006;8.514;2022-11-15T04:57:44;9.60;;;8.70;;
7527;SDS011;3805;49.006;8.514;2022-11-15T05:00:32;10.80;;;9.80;;
7527;SDS011;3805;49.006;8.514;2022-11-15T05:03:22;11.73;;;10.70;;
7527;SDS011;3805;49.006;8.514;2022-11-15T05:06:28;11.37;;;10.47;;
7527;SDS011;3805;49.006;8.514;2022-11-15T05:09:17;11.00;;;10.00;;
7527;SDS011;3805;49.006;8.514;2022-11-15T05:12:06;15.50;;;11.70;;
7527;SDS011;3805;49.006;8.514;2022-11-15T05:14:54;13.10;;;11.70;;
7527;SDS011;3805;49.006;8.514;2022-11-15T05:17:43;12.40;;;11.10;;
7527;SDS011;3805;49.006;8.514;2022-11-15T05:20:32;11.90;;;10.50;;
7527;SDS011;3805;49.006;8.514;2022-11-15T05:23:21;11.30;;;10.20;;
7527;SDS011;3805;49.006;8.514;2022-11-15T05:26:10;11.60;;;10.47;;
7527;SDS011;3805;49.006;8.514;2022-11-15T05:28:59;11.37;;;9.40;;
7527;SDS011;3805;49.006;8.514;2022-11-15T05:31:47;9.57;;;8.77;;
7527;SDS011;3805;49.006;8.514;2022-11-15T05:34:36;11.60;;;8.90;;
7527;SDS011;3805;49.006;8.514;2022-11-15T05:37:25;12.17;;;10.47;;
7527;SDS011;3805;49.006;8.514;2022-11-15T05:40:14;15.30;;;10.40;;
7527;SDS011;3805;49.006;8.514;2022-11-15T05:43:03;11.23;;;10.13;;
7527;SDS011;3805;49.006;8.514;2022-11-15T05:45:52;12.63;;;11.23;;
7527;SDS011;3805;49.006;8.514;2022-11-15T05:48:41;10.87;;;9.83;;
7527;SDS011;3805;49.006;8.514;2022-11-15T05:51:31;12.07;;;10.80;;
7527;SDS011;3805;49.006;8.514;2022-11-15T05:54:21;13.23;;;11.80;;
7527;SDS011;3805;49.006;8.514;2022-11-15T05:57:11;12.97;;;11.57;;
7527;SDS011;3805;49.006;8.514;2022-11-15T05:59:59;12.47;;;11.27;;
7527;SDS011;3805;49.006;8.514;2022-11-15T06:02:48;11.80;;;10.70;;
7527;SDS011;3805;49.006;8.514;2022-11-15T06:05:36;17.03;;;12.30;;
7527;SDS011;3805;49.006;8.514;2022-11-15T06:08:25;15.87;;;12.63;;
7527;SDS011;3805;49.006;8.514;2022-11-15T06:11:15;10.60;;;9.50;;
7527;SDS011;3805;49.006;8.514;2022-11-15T06:14:04;9.07;;;8.20;;
7527;SDS011;3805;49.006;8.514;2022-11-15T06:16:52;14.27;;;10.33;;
7527;SDS011;3805;49.006;8.514;2022-11-15T06:19:41;10.03;;;8.97;;
7527;SDS011;3805;49.006;8.514;2022-11-15T06:22:29;10.33;;;9.23;;
7527;SDS011;3805;49.006;8.514;2022-11-15T06:25:18;15.43;;;11.00;;
7527;SDS011;3805;49.006;8.514;2022-11-15T06:28:07;14.00;;;12.67;;
7527;SDS011;3805;49.006;8.514;2022-11-15T06:31:01;16.40;;;12.60;;
7527;SDS011;3805;49.006;8.514;2022-11-15T06:33:50;13.60;;;12.20;;
7527;SDS011;3805;49.006;8.514;2022-11-15T06:36:38;13.63;;;11.30;;
7527;SDS011;3805;49.006;8.514;2022-11-15T06:39:27;16.97;;;12.33;;
7527;SDS011;3805;49.006;8.514;2022-11-15T06:42:15;16.23;;;14.37;;
7527;SDS011;3805;49.006;8.514;2022-11-15T06:45:06;13.63;;;12.23;;
7527;SDS011;3805;49.006;8.514;2022-11-15T06:47:55;15.57;;;12.30;;
7527;SDS011;3805;49.006;8.514;2022-11-15T06:50:49;15.67;;;9.93;;
7527;SDS011;3805;49.006;8.514;2022-11-15T06:53:38;10.80;;;9.70;;
7527;SDS011;3805;49.006;8.514;2022-11-15T06:56:27;10.50;;;9.40;;
7527;SDS011;3805;49.006;8.514;2022-11-15T06:59:15;10.80;;;9.80;;
7527;SDS011;3805;49.006;8.514;2022-11-15T07:02:05;11.73;;;10.63;;
7527;SDS011;3805;49.006;8.514;2022-11-15T07:04:53;11.13;;;10.03;;
7527;SDS011;3805;49.006;8.514;2022-11-15T07:07:42;12.47;;;11.30;;
7527;SDS011;3805;49.006;8.514;2022-11-15T07:10:31;10.50;;;9.60;;
7527;SDS011;3805;49.006;8.514;2022-11-15T07:13:19;11.23;;;10.10;;
7527;SDS011;3805;49.006;8.514;2022-11-15T07:16:08;9.17;;;8.10;;
7527;SDS011;3805;49.006;8.514;2022-11-15T07:18:59;9.93;;;8.93;;
7527;SDS011;3805;49.006;8.514;2022-11-15T07:21:48;13.57;;;9.27;;
7527;SDS011;3805;49.006;8.514;2022-11-15T07:24:36;10.93;;;9.80;;
7527;SDS011;3805;49.006;8.514;2022-11-15T07:27:25;10.50;;;9.03;;
7527;SDS011;3805;49.006;8.514;2022-11-15T07:30:13;13.00;;;10.27;;
7527;SDS011;3805;49.006;8.514;2022-11-15T07:33:02;12.17;;;10.67;;
7527;SDS011;3805;49.006;8.514;2022-11-15T07:35:52;14.17;;;10.23;;
7527;SDS011;3805;49.006;8.514;2022-11-15T07:38:40;11.33;;;10.23;;
7527;SDS011;3805;49.006;8.514;2022-11-15T07:41:29;14.23;;;11.90;;
7527;SDS011;3805;49.006;8.514;2022-11-15T07:44:17;11.10;;;10.00;;
7527;SDS011;3805;49.006;8.514;2022-11-15T07:47:06;13.57;;;11.60;;
7527;SDS011;3805;49.006;8.514;2022-11-15T07:49:54;16.90;;;11.60;;
7527;SDS011;3805;49.006;8.514;2022-11-15T07:52:44;13.37;;;11.63;;
7527;SDS011;3805;49.006;8.514;2022-11-15T07:55:33;19.73;;;13.90;;
7527;SDS011;3805;49.006;8.514;2022-11-15T07:58:22;17.53;;;14.00;;
7527;SDS011;3805;49.006;8.514;2022-11-15T08:01:11;20.17;;;13.70;;
7527;SDS011;3805;49.006;8.514;2022-11-15T08:04:00;16.30;;;12.60;;
7527;SDS011;3805;49.006;8.514;2022-11-15T08:06:48;22.90;;;17.07;;
7527;SDS011;3805;49.006;8.514;2022-11-15T08:09:38;19.97;;;16.03;;
7527;SDS011;3805;49.006;8.514;2022-11-15T08:12:27;19.97;;;14.40;;
7527;SDS011;3805;49.006;8.514;2022-11-15T08:15:16;20.83;;;17.57;;
7527;SDS011;3805;49.006;8.514;2022-11-15T08:18:05;18.67;;;16.50;;
7527;SDS011;3805;49.006;8.514;2022-11-15T08:20:57;20.13;;;14.70;;
7527;SDS011;3805;49.006;8.514;2022-11-15T08:23:46;17.23;;;14.30;;
7527;SDS011;3805;49.006;8.514;2022-11-15T08:26:36;14.83;;;13.43;;
7527;SDS011;3805;49.006;8.514;2022-11-15T08:29:25;15.33;;;12.07;;
7527;SDS011;3805;49.006;8.514;2022-11-15T08:32:14;12.47;;;11.20;;
7527;SDS011;3805;49.006;8.514;2022-11-15T08:35:02;10.67;;;9.67;;
7527;SDS011;3805;49.006;8.514;2022-11-15T08:37:52;12.43;;;11.13;;
7527;SDS011;3805;49.006;8.514;2022-11-15T08:40:40;11.43;;;10.23;;
7527;SDS011;3805;49.006;8.514;2022-11-15T08:43:30;12.87;;;11.60;;
7527;SDS011;3805;49.006;8.514;2022-11-15T08:46:19;11.30;;;10.10;;
7527;SDS011;3805;49.006;8.514;2022-11-15T08:49:08;10.63;;;9.20;;
7527;SDS011;3805;49.006;8.514;2022-11-15T08:51:56;10.97;;;9.97;;
7527;SDS011;3805;49.006;8.514;2022-11-15T08:54:45;9.40;;;8.53;;
7527;SDS011;3805;49.006;8.514;2022-11-15T08:57:33;11.27;;;9.47;;
7527;SDS011;3805;49.006;8.514;2022-11-15T09:00:23;13.97;;;10.87;;
7527;SDS011;3805;49.006;8.514;2022-11-15T09:03:11;9.57;;;8.60;;
7527;SDS011;3805;49.006;8.514;2022-11-15T09:06:00;13.33;;;11.60;;
7527;SDS011;3805;49.006;8.514;2022-11-15T09:08:49;15.60;;;11.30;;
7527;SDS011;3805;49.006;8.514;2022-11-15T09:11:37;16.40;;;12.73;;
7527;SDS011;3805;49.006;8.514;2022-11-15T09:14:26;14.87;;;12.30;;
7527;SDS011;3805;49.006;8.514;2022-11-15T09:17:15;12.87;;;11.57;;
7527;SDS011;3805;49.006;8.514;2022-11-15T09:20:10;12.67;;;11.47;;
7527;SDS011;3805;49.006;8.514;2022-11-15T09:22:59;18.17;;;13.00;;
7527;SDS011;3805;49.006;8.514;2022-11-15T09:25:48;16.50;;;13.83;;
7527;SDS011;3805;49.006;8.514;2022-11-15T09:28:37;16.00;;;14.20;;
7527;SDS011;3805;49.006;8.514;2022-11-15T09:31:28;15.80;;;12.23;;
7527;SDS011;3805;49.006;8.514;2022-11-15T09:34:18;12.93;;;11.57;;
7527;SDS011;3805;49.006;8.514;2022-11-15T09:37:07;14.27;;;12.33;;
7527;SDS011;3805;49.006;8.514;2022-11-15T09:39:56;13.33;;;11.93;;
7527;SDS011;3805;49.006;8.514;2022-11-15T09:42:47;12.17;;;11.00;;
7527;SDS011;3805;49.006;8.514;2022-11-15T09:45:48;11.50;;;10.40;;
7527;SDS011;3805;49.006;8.514;2022-11-15T09:48:48;11.83;;;10.63;;
7527;SDS011;3805;49.006;8.514;2022-11-15T09:51:41;16.53;;;10.77;;
7527;SDS011;3805;49.006;8.514;2022-11-15T09:54:35;13.37;;;11.10;;
7527;SDS011;3805;49.006;8.514;2022-11-15T09:57:41;12.57;;;11.27;;
7527;SDS011;3805;49.006;8.514;2022-11-15T10:00:36;10.97;;;9.97;;
7527;SDS011;3805;49.006;8.514;2022-11-15T10:03:35;12.20;;;11.10;;
7527;SDS011;3805;49.006;8.514;2022-11-15T10:06:26;11.17;;;10.07;;
7527;SDS011;3805;49.006;8.514;2022-11-15T10:09:17;12.83;;;11.60;;
7527;SDS011;3805;49.006;8.514;2022-11-15T10:12:10;13.83;;;12.50;;
7527;SDS011;3805;49.006;8.514;2022-11-15T10:15:01;14.07;;;12.83;;
7527;SDS011;3805;49.006;8.514;2022-11-15T10:17:58;13.63;;;12.37;;
7527;SDS011;3805;49.006;8.514;2022-11-15T10:20:55;13.50;;;12.20;;
7527;SDS011;3805;49.006;8.514;2022-11-15T10:23:46;11.17;;;10.27;;
7527;SDS011;3805;49.006;8.514;2022-11-15T10:26:36;12.37;;;10.97;;
7527;SDS011;3805;49.006;8.514;2022-11-15T10:29:25;12.10;;;11.00;;
7527;SDS011;3805;49.006;8.514;2022-11-15T10:32:16;11.57;;;10.43;;
7527;SDS011;3805;49.006;8.514;2022-11-15T10:35:15;11.90;;;10.70;;
7527;SDS011;3805;49.006;8.514;2022-11-15T10:38:05;11.13;;;10.20;;
7527;SDS011;3805;49.006;8.514;2022-11-15T10:40:55;10.60;;;9.50;;
7527;SDS011;3805;49.006;8.514;2022-11-15T10:44:03;11.17;;;9.97;;
7527;SDS011;3805;49.006;8.514;2022-11-15T10:47:05;10.57;;;9.47;;
7527;SDS011;3805;49.006;8.514;2022-11-15T10:50:05;10.70;;;9.60;;
7527;SDS011;3805;49.006;8.514;2022-11-15T10:52:55;11.57;;;10.47;;
7527;SDS011;3805;49.006;8.514;2022-11-15T10:55:46;9.83;;;9.07;;
7527;SDS011;3805;49.006;8.514;2022-11-15T10:58:36;10.13;;;9.17;;
7527;SDS011;3805;49.006;8.514;2022-11-15T11:01:28;10.23;;;9.30;;
7527;SDS011;3805;49.006;8.514;2022-11-15T11:04:17;10.37;;;9.47;;
7527;SDS011;3805;49.006;8.514;2022-11-15T11:07:08;11.17;;;10.20;;
7527;SDS011;3805;49.006;8.514;2022-11-15T11:10:17;9.93;;;9.00;;
7527;SDS011;3805;49.006;8.514;2022-11-15T11:13:26;11.43;;;10.33;;
7527;SDS011;3805;49.006;8.514;2022-11-15T11:16:31;13.20;;;11.97;;
7527;SDS011;3805;49.006;8.514;2022-11-15T11:19:31;15.50;;;14.03;;
7527;SDS011;3805;49.006;8.514;2022-11-15T11:22:26;13.73;;;12.30;;
7527;SDS011;3805;49.006;8.514;2022-11-15T11:25:22;12.83;;;11.63;;
7527;SDS011;3805;49.006;8.514;2022-11-15T11:28:20;13.77;;;12.40;;
7527;SDS011;3805;49.006;8.514;2022-11-15T11:31:20;18.33;;;15.37;;
7527;SDS011;3805;49.006;8.514;2022-11-15T11:34:15;16.10;;;14.40;;
7527;SDS011;3805;49.006;8.514;2022-11-15T11:37:08;16.30;;;14.60;;
7527;SDS011;3805;49.006;8.514;2022-11-15T11:40:06;18.20;;;13.30;;
7527;SDS011;3805;49.006;8.514;2022-11-15T11:43:04;13.83;;;12.30;;
7527;SDS011;3805;49.006;8.514;2022-11-15T11:46:02;18.93;;;15.07;;
7527;SDS011;3805;49.006;8.514;2022-11-15T11:48:57;13.00;;;10.90;;
7527;SDS011;3805;49.006;8.514;2022-11-15T11:51:53;11.23;;;10.10;;
7527;SDS011;3805;49.006;8.514;2022-11-15T11:54:47;9.30;;;8.40;;
7527;SDS011;3805;49.006;8.514;2022-11-15T11:57:50;8.90;;;8.00;;
7527;SDS011;3805;49.006;8.514;2022-11-15T12:00:45;11.03;;;8.00;;
7527;SDS011;3805;49.006;8.514;2022-11-15T12:03:40;9.70;;;7.40;;
7527;SDS011;3805;49.006;8.514;2022-11-15T12:06:35;8.67;;;7.23;;
7527;SDS011;3805;49.006;8.514;2022-11-15T12:09:31;7.93;;;7.13;;
7527;SDS011;3805;49.006;8.514;2022-11-15T12:12:25;7.87;;;7.17;;
7527;SDS011;3805;49.006;8.514;2022-11-15T12:15:19;8.67;;;7.60;;
7527;SDS011;3805;49.006;8.514;2022-11-15T12:18:11;10.93;;;7.70;;
7527;SDS011;3805;49.006;8.514;2022-11-15T12:21:05;8.00;;;7.30;;
7527;SDS011;3805;49.006;8.514;2022-11-15T12:23:58;7.30;;;6.60;;
7527;SDS011;3805;49.006;8.514;2022-11-15T12:26:53;12.90;;;6.47;;
7527;SDS011;3805;49.006;8.514;2022-11-15T12:29:45;10.00;;;7.20;;
7527;SDS011;3805;49.006;8.514;2022-11-15T12:32:37;7.73;;;6.97;;
7527;SDS011;3805;49.006;8.514;2022-11-15T12:35:31;10.03;;;7.20;;
7527;SDS011;3805;49.006;8.514;2022-11-15T12:41:44;12.53;;;8.93;;
7527;SDS011;3805;49.006;8.514;2022-11-15T12:47:57;16.33;;;9.60;;
7527;SDS011;3805;49.006;8.514;2022-11-15T12:51:15;9.93;;;8.10;;
7527;SDS011;3805;49.006;8.514;2022-11-15T12:57:38;9.27;;;7.43;;
7527;SDS011;3805;49.006;8.514;2022-11-15T13:00:36;8.27;;;7.33;;
7527;SDS011;3805;49.006;8.514;2022-11-15T13:03:28;6.90;;;6.30;;
7527;SDS011;3805;49.006;8.514;2022-11-15T13:09:53;5.00;;;4.67;;
7527;SDS011;3805;49.006;8.514;2022-11-15T13:15:53;6.57;;;6.07;;
7527;SDS011;3805;49.006;8.514;2022-11-15T13:18:44;5.77;;;5.17;;
7527;SDS011;3805;49.006;8.514;2022-11-15T13:21:47;5.90;;;5.30;;
7527;SDS011;3805;49.006;8.514;2022-11-15T13:24:53;6.13;;;5.60;;
7527;SDS011;3805;49.006;8.514;2022-11-15T13:27:42;6.23;;;5.53;;
7527;SDS011;3805;49.006;8.514;2022-11-15T13:30:31;11.07;;;5.60;;
7527;SDS011;3805;49.006;8.514;2022-11-15T13:33:20;7.10;;;6.40;;
7527;SDS011;3805;49.006;8.514;2022-11-15T13:36:14;6.43;;;5.90;;
7527;SDS011;3805;49.006;8.514;2022-11-15T13:39:11;8.73;;;5.90;;
7527;SDS011;3805;49.006;8.514;2022-11-15T13:42:01;6.57;;;5.83;;
7527;SDS011;3805;49.006;8.514;2022-11-15T13:44:56;9.20;;;6.03;;
7527;SDS011;3805;49.006;8.514;2022-11-15T13:47:50;6.40;;;5.50;;
7527;SDS011;3805;49.006;8.514;2022-11-15T13:50:39;8.30;;;6.30;;
7527;SDS011;3805;49.006;8.514;2022-11-15T13:53:29;7.13;;;6.50;;
7527;SDS011;3805;49.006;8.514;2022-11-15T13:56:19;7.03;;;6.33;;
7527;SDS011;3805;49.006;8.514;2022-11-15T13:59:09;6.43;;;5.83;;
7527;SDS011;3805;49.006;8.514;2022-11-15T14:01:58;7.63;;;6.13;;
7527;SDS011;3805;49.006;8.514;2022-11-15T14:04:49;9.23;;;6.80;;
7527;SDS011;3805;49.006;8.514;2022-11-15T14:07:39;7.63;;;6.60;;
7527;SDS011;3805;49.006;8.514;2022-11-15T14:10:32;11.53;;;6.90;;
7527;SDS011;3805;49.006;8.514;2022-11-15T14:13:26;7.00;;;6.40;;
7527;SDS011;3805;49.006;8.514;2022-11-15T14:16:17;8.40;;;6.90;;
7527;SDS011;3805;49.006;8.514;2022-11-15T14:19:09;10.83;;;8.53;;
7527;SDS011;3805;49.006;8.514;2022-11-15T14:22:12;8.33;;;7.53;;
7527;SDS011;3805;49.006;8.514;2022-11-15T14:28:12;9.27;;;8.30;;
7527;SDS011;3805;49.006;8.514;2022-11-15T14:31:17;9.50;;;8.60;;
7527;SDS011;3805;49.006;8.514;2022-11-15T14:34:07;8.00;;;7.20;;
7527;SDS011;3805;49.006;8.514;2022-11-15T14:36:56;11.17;;;8.60;;
7527;SDS011;3805;49.006;8.514;2022-11-15T14:39:45;8.53;;;7.73;;
7527;SDS011;3805;49.006;8.514;2022-11-15T14:42:34;7.60;;;6.90;;
7527;SDS011;3805;49.006;8.514;2022-11-15T14:45:26;10.00;;;8.00;;
7527;SDS011;3805;49.006;8.514;2022-11-15T14:48:15;7.87;;;7.07;;
7527;SDS011;3805;49.006;8.514;2022-11-15T14:51:08;10.07;;;7.43;;
7527;SDS011;3805;49.006;8.514;2022-11-15T14:54:01;6.40;;;5.87;;
7527;SDS011;3805;49.006;8.514;2022-11-15T14:56:50;7.67;;;5.80;;
7527;SDS011;3805;49.006;8.514;2022-11-15T14:59:38;6.60;;;6.00;;
7527;SDS011;3805;49.006;8.514;2022-11-15T15:02:28;7.00;;;5.80;;
7527;SDS011;3805;49.006;8.514;2022-11-15T15:05:18;8.13;;;5.80;;
7527;SDS011;3805;49.006;8.514;2022-11-15T15:08:07;9.30;;;6.10;;
7527;SDS011;3805;49.006;8.514;2022-11-15T15:10:56;5.80;;;5.30;;
7527;SDS011;3805;49.006;8.514;2022-11-15T15:13:45;5.43;;;4.80;;
7527;SDS011;3805;49.006;8.514;2022-11-15T15:16:33;5.23;;;4.77;;
7527;SDS011;3805;49.006;8.514;2022-11-15T15:19:23;8.60;;;7.17;;
7527;SDS011;3805;49.006;8.514;2022-11-15T15:22:13;8.27;;;6.80;;
7527;SDS011;3805;49.006;8.514;2022-11-15T15:25:02;8.67;;;7.80;;
7527;SDS011;3805;49.006;8.514;2022-11-15T15:27:55;12.50;;;8.70;;
7527;SDS011;3805;49.006;8.514;2022-11-15T15:30:44;8.53;;;7.73;;
7527;SDS011;3805;49.006;8.514;2022-11-15T15:33:32;11.77;;;9.67;;
7527;SDS011;3805;49.006;8.514;2022-11-15T15:36:22;11.60;;;10.53;;
7527;SDS011;3805;49.006;8.514;2022-11-15T15:39:11;12.23;;;9.97;;
7527;SDS011;3805;49.006;8.514;2022-11-15T15:42:00;10.67;;;9.67;;
7527;SDS011;3805;49.006;8.514;2022-11-15T15:44:49;8.43;;;7.70;;
7527;SDS011;3805;49.006;8.514;2022-11-15T15:47:38;13.87;;;7.60;;
7527;SDS011;3805;49.006;8.514;2022-11-15T15:50:27;9.10;;;8.30;;
7527;SDS011;3805;49.006;8.514;2022-11-15T15:53:18;9.37;;;8.47;;
7527;SDS011;3805;49.006;8.514;2022-11-15T15:56:07;8.17;;;7.20;;
7527;SDS011;3805;49.006;8.514;2022-11-15T15:58:56;8.70;;;7.90;;
7527;SDS011;3805;49.006;8.514;2022-11-15T16:01:44;10.60;;;9.53;;
7527;SDS011;3805;49.006;8.514;2022-11-15T16:04:33;9.87;;;8.30;;
7527;SDS011;3805;49.006;8.514;2022-11-15T16:07:22;10.20;;;8.27;;
7527;SDS011;3805;49.006;8.514;2022-11-15T16:10:20;8.90;;;8.03;;
7527;SDS011;3805;49.006;8.514;2022-11-15T16:13:11;11.87;;;7.40;;
7527;SDS011;3805;49.006;8.514;2022-11-15T16:16:00;9.33;;;7.17;;
7527;SDS011;3805;49.006;8.514;2022-11-15T16:18:48;9.50;;;7.90;;
7527;SDS011;3805;49.006;8.514;2022-11-15T16:21:37;9.43;;;8.50;;
7527;SDS011;3805;49.006;8.514;2022-11-15T16:24:25;8.70;;;7.87;;
7527;SDS011;3805;49.006;8.514;2022-11-15T16:27:16;10.30;;;7.87;;
7527;SDS011;3805;49.006;8.514;2022-11-15T16:30:07;9.73;;;7.60;;
7527;SDS011;3805;49.006;8.514;2022-11-15T16:32:58;9.03;;;8.13;;
7527;SDS011;3805;49.006;8.514;2022-11-15T16:35:47;9.33;;;8.43;;
7527;SDS011;3805;49.006;8.514;2022-11-15T16:38:35;10.03;;;8.93;;
7527;SDS011;3805;49.006;8.514;2022-11-15T16:41:26;17.53;;;13.00;;
7527;SDS011;3805;49.006;8.514;2022-11-15T16:44:15;14.43;;;12.33;;
7527;SDS011;3805;49.006;8.514;2022-11-15T16:47:04;12.90;;;11.03;;
7527;SDS011;3805;49.006;8.514;2022-11-15T16:49:52;13.10;;;11.60;;
7527;SDS011;3805;49.006;8.514;2022-11-15T16:52:41;11.43;;;10.30;;
7527;SDS011;3805;49.006;8.514;2022-11-15T16:55:30;9.43;;;8.10;;
7527;SDS011;3805;49.006;8.514;2022-11-15T16:58:20;6.97;;;5.10;;
7527;SDS011;3805;49.006;8.514;2022-11-15T17:01:13;5.30;;;4.80;;
7527;SDS011;3805;49.006;8.514;2022-11-15T17:04:04;5.60;;;5.20;;
7527;SDS011;3805;49.006;8.514;2022-11-15T17:06:58;6.70;;;6.10;;
7527;SDS011;3805;49.006;8.514;2022-11-15T17:09:47;8.07;;;7.23;;
7527;SDS011;3805;49.006;8.514;2022-11-15T17:12:36;9.20;;;8.20;;
7527;SDS011;3805;49.006;8.514;2022-11-15T17:15:24;11.20;;;8.90;;
7527;SDS011;3805;49.006;8.514;2022-11-15T17:18:15;9.80;;;8.80;;
7527;SDS011;3805;49.006;8.514;2022-11-15T17:21:04;10.23;;;8.43;;
7527;SDS011;3805;49.006;8.514;2022-11-15T17:23:53;11.57;;;10.57;;
7527;SDS011;3805;49.006;8.514;2022-11-15T17:26:42;16.50;;;14.67;;
7527;SDS011;3805;49.006;8.514;2022-11-15T17:29:31;23.67;;;17.57;;
7527;SDS011;3805;49.006;8.514;2022-11-15T17:32:19;17.47;;;14.37;;
7527;SDS011;3805;49.006;8.514;2022-11-15T17:35:10;18.90;;;14.50;;
7527;SDS011;3805;49.006;8.514;2022-11-15T17:38:02;21.60;;;18.30;;
7527;SDS011;3805;49.006;8.514;2022-11-15T17:40:58;18.60;;;16.20;;
7527;SDS011;3805;49.006;8.514;2022-11-15T17:43:47;19.43;;;15.77;;
7527;SDS011;3805;49.006;8.514;2022-11-15T17:46:36;13.87;;;12.47;;
7527;SDS011;3805;49.006;8.514;2022-11-15T17:49:26;14.07;;;12.27;;
7527;SDS011;3805;49.006;8.514;2022-11-15T17:52:16;13.17;;;11.87;;
7527;SDS011;3805;49.006;8.514;2022-11-15T17:55:05;16.87;;;11.40;;